Bom Retiro, Brazil
Current Conditions -  °F | °C
As of 4:00 PM on Sunday 21 Dec 2014 (Local Time) from SBFL Reporting Station
Scattered Clouds Scattered Clouds  
Wind Chill: 82°   Ceiling: Unl
Heat Index: 88°   Visibility: 6mi
Dew Point: 73°   Wind: 21mph
Humidity: 74%   Direction: 10°N
Pressure: 29.59"   Gusts: NA
Location:  27.8°S, 49.49°W
Report Text: SBFL 211800Z 01018KT 340V040 9999 SCT020 FEW035TCU SCT080 28/23 Q1002 RETS
Loading
Personal Weather Stations






























Interactive Weather Map New forecast layout! Learn more

10-Day Weather Forecast

Advertisements
Track Severe Weather on mobile